sensor_id;sensor_type;location;lat;lon;timestamp;P1;durP1;ratioP1;P2;durP2;ratioP2
73152;SDS011;61363;50.882;5.988;2024-01-10T00:02:18;5.68;;;2.60;;
73152;SDS011;61363;50.882;5.988;2024-01-10T00:04:44;6.17;;;2.50;;
73152;SDS011;61363;50.882;5.988;2024-01-10T00:07:09;5.53;;;2.70;;
73152;SDS011;61363;50.882;5.988;2024-01-10T00:09:34;6.43;;;2.80;;
73152;SDS011;61363;50.882;5.988;2024-01-10T00:12:00;5.70;;;2.10;;
73152;SDS011;61363;50.882;5.988;2024-01-10T00:14:25;6.17;;;2.57;;
73152;SDS011;61363;50.882;5.988;2024-01-10T00:16:50;6.50;;;2.60;;
73152;SDS011;61363;50.882;5.988;2024-01-10T00:19:16;5.57;;;2.50;;
73152;SDS011;61363;50.882;5.988;2024-01-10T00:21:41;6.03;;;2.65;;
73152;SDS011;61363;50.882;5.988;2024-01-10T00:24:06;7.45;;;2.60;;
73152;SDS011;61363;50.882;5.988;2024-01-10T00:26:32;5.93;;;2.40;;
73152;SDS011;61363;50.882;5.988;2024-01-10T00:28:57;5.93;;;2.30;;
73152;SDS011;61363;50.882;5.988;2024-01-10T00:31:23;6.40;;;2.70;;
73152;SDS011;61363;50.882;5.988;2024-01-10T00:33:48;5.55;;;2.38;;
73152;SDS011;61363;50.882;5.988;2024-01-10T00:36:14;6.10;;;2.80;;
73152;SDS011;61363;50.882;5.988;2024-01-10T00:38:39;5.83;;;2.43;;
73152;SDS011;61363;50.882;5.988;2024-01-10T00:41:05;5.33;;;2.40;;
73152;SDS011;61363;50.882;5.988;2024-01-10T00:43:30;6.80;;;2.80;;
73152;SDS011;61363;50.882;5.988;2024-01-10T00:45:55;6.33;;;2.80;;
73152;SDS011;61363;50.882;5.988;2024-01-10T00:48:21;5.73;;;2.70;;
73152;SDS011;61363;50.882;5.988;2024-01-10T00:50:46;5.83;;;2.60;;
73152;SDS011;61363;50.882;5.988;2024-01-10T00:53:12;6.43;;;2.60;;
73152;SDS011;61363;50.882;5.988;2024-01-10T00:55:38;6.90;;;2.53;;
73152;SDS011;61363;50.882;5.988;2024-01-10T00:58:03;4.97;;;2.40;;
73152;SDS011;61363;50.882;5.988;2024-01-10T01:00:29;5.70;;;2.55;;
73152;SDS011;61363;50.882;5.988;2024-01-10T01:02:54;5.00;;;2.43;;
73152;SDS011;61363;50.882;5.988;2024-01-10T01:05:19;6.47;;;3.03;;
73152;SDS011;61363;50.882;5.988;2024-01-10T01:07:45;5.27;;;2.50;;
73152;SDS011;61363;50.882;5.988;2024-01-10T01:10:10;5.63;;;2.53;;
73152;SDS011;61363;50.882;5.988;2024-01-10T01:12:35;5.50;;;2.30;;
73152;SDS011;61363;50.882;5.988;2024-01-10T01:15:01;5.20;;;2.38;;
73152;SDS011;61363;50.882;5.988;2024-01-10T01:17:26;6.77;;;2.67;;
73152;SDS011;61363;50.882;5.988;2024-01-10T01:19:52;6.00;;;2.80;;
73152;SDS011;61363;50.882;5.988;2024-01-10T01:22:17;5.67;;;2.23;;
73152;SDS011;61363;50.882;5.988;2024-01-10T01:24:42;5.20;;;2.42;;
73152;SDS011;61363;50.882;5.988;2024-01-10T01:27:08;6.03;;;2.57;;
73152;SDS011;61363;50.882;5.988;2024-01-10T01:29:34;5.53;;;2.43;;
73152;SDS011;61363;50.882;5.988;2024-01-10T01:31:59;5.73;;;2.60;;
73152;SDS011;61363;50.882;5.988;2024-01-10T01:34:24;5.68;;;2.50;;
73152;SDS011;61363;50.882;5.988;2024-01-10T01:36:50;5.80;;;2.80;;
73152;SDS011;61363;50.882;5.988;2024-01-10T01:39:16;5.47;;;2.70;;
73152;SDS011;61363;50.882;5.988;2024-01-10T01:41:42;5.78;;;2.58;;
73152;SDS011;61363;50.882;5.988;2024-01-10T01:44:08;4.77;;;2.50;;
73152;SDS011;61363;50.882;5.988;2024-01-10T01:46:33;5.75;;;2.42;;
73152;SDS011;61363;50.882;5.988;2024-01-10T01:48:59;5.70;;;2.47;;
73152;SDS011;61363;50.882;5.988;2024-01-10T01:51:25;5.90;;;2.60;;
73152;SDS011;61363;50.882;5.988;2024-01-10T01:53:51;6.47;;;2.67;;
73152;SDS011;61363;50.882;5.988;2024-01-10T01:56:17;5.73;;;2.60;;
73152;SDS011;61363;50.882;5.988;2024-01-10T01:58:43;6.53;;;2.78;;
73152;SDS011;61363;50.882;5.988;2024-01-10T02:01:08;6.43;;;3.10;;
73152;SDS011;61363;50.882;5.988;2024-01-10T02:03:35;6.18;;;2.58;;
73152;SDS011;61363;50.882;5.988;2024-01-10T02:06:00;4.87;;;2.40;;
73152;SDS011;61363;50.882;5.988;2024-01-10T02:08:29;6.65;;;2.83;;
73152;SDS011;61363;50.882;5.988;2024-01-10T02:10:58;5.05;;;2.53;;
73152;SDS011;61363;50.882;5.988;2024-01-10T02:13:24;6.32;;;2.50;;
73152;SDS011;61363;50.882;5.988;2024-01-10T02:15:49;4.97;;;2.30;;
73152;SDS011;61363;50.882;5.988;2024-01-10T02:18:15;6.00;;;2.70;;
73152;SDS011;61363;50.882;5.988;2024-01-10T02:20:42;6.75;;;2.75;;
73152;SDS011;61363;50.882;5.988;2024-01-10T02:23:08;6.27;;;2.60;;
73152;SDS011;61363;50.882;5.988;2024-01-10T02:25:34;5.45;;;2.42;;
73152;SDS011;61363;50.882;5.988;2024-01-10T02:27:59;5.03;;;2.70;;
73152;SDS011;61363;50.882;5.988;2024-01-10T02:30:25;6.10;;;2.90;;
73152;SDS011;61363;50.882;5.988;2024-01-10T02:32:50;6.43;;;2.73;;
73152;SDS011;61363;50.882;5.988;2024-01-10T02:35:15;5.77;;;2.57;;
73152;SDS011;61363;50.882;5.988;2024-01-10T02:37:41;6.22;;;2.95;;
73152;SDS011;61363;50.882;5.988;2024-01-10T02:40:06;5.97;;;2.83;;
73152;SDS011;61363;50.882;5.988;2024-01-10T02:42:32;8.63;;;2.70;;
73152;SDS011;61363;50.882;5.988;2024-01-10T02:44:58;6.18;;;2.75;;
73152;SDS011;61363;50.882;5.988;2024-01-10T02:47:24;6.00;;;2.70;;
73152;SDS011;61363;50.882;5.988;2024-01-10T02:49:49;6.07;;;2.87;;
73152;SDS011;61363;50.882;5.988;2024-01-10T02:52:15;5.83;;;2.53;;
73152;SDS011;61363;50.882;5.988;2024-01-10T02:54:40;6.20;;;2.83;;
73152;SDS011;61363;50.882;5.988;2024-01-10T02:57:06;5.20;;;2.60;;
73152;SDS011;61363;50.882;5.988;2024-01-10T02:59:31;5.43;;;2.33;;
73152;SDS011;61363;50.882;5.988;2024-01-10T03:01:57;5.60;;;2.73;;
73152;SDS011;61363;50.882;5.988;2024-01-10T03:04:22;5.00;;;2.35;;
73152;SDS011;61363;50.882;5.988;2024-01-10T03:06:47;5.50;;;2.80;;
73152;SDS011;61363;50.882;5.988;2024-01-10T03:09:13;5.37;;;2.60;;
73152;SDS011;61363;50.882;5.988;2024-01-10T03:11:38;6.23;;;2.83;;
73152;SDS011;61363;50.882;5.988;2024-01-10T03:14:08;6.03;;;2.67;;
73152;SDS011;61363;50.882;5.988;2024-01-10T03:16:34;6.50;;;2.80;;
73152;SDS011;61363;50.882;5.988;2024-01-10T03:19:00;5.50;;;2.50;;
73152;SDS011;61363;50.882;5.988;2024-01-10T03:21:25;5.50;;;2.67;;
73152;SDS011;61363;50.882;5.988;2024-01-10T03:23:54;5.90;;;2.60;;
73152;SDS011;61363;50.882;5.988;2024-01-10T03:26:21;6.10;;;2.67;;
73152;SDS011;61363;50.882;5.988;2024-01-10T03:28:47;5.03;;;2.67;;
73152;SDS011;61363;50.882;5.988;2024-01-10T03:31:12;5.78;;;2.55;;
73152;SDS011;61363;50.882;5.988;2024-01-10T03:33:37;5.47;;;2.50;;
73152;SDS011;61363;50.882;5.988;2024-01-10T03:36:03;6.17;;;2.67;;
73152;SDS011;61363;50.882;5.988;2024-01-10T03:38:29;6.10;;;2.67;;
73152;SDS011;61363;50.882;5.988;2024-01-10T03:40:55;5.83;;;2.80;;
73152;SDS011;61363;50.882;5.988;2024-01-10T03:43:20;5.10;;;2.40;;
73152;SDS011;61363;50.882;5.988;2024-01-10T03:45:45;5.90;;;2.65;;
73152;SDS011;61363;50.882;5.988;2024-01-10T03:48:11;5.00;;;2.30;;
73152;SDS011;61363;50.882;5.988;2024-01-10T03:50:36;6.10;;;2.77;;
73152;SDS011;61363;50.882;5.988;2024-01-10T03:53:01;5.97;;;2.77;;
73152;SDS011;61363;50.882;5.988;2024-01-10T03:55:27;6.77;;;3.00;;
73152;SDS011;61363;50.882;5.988;2024-01-10T03:57:52;6.57;;;2.90;;
73152;SDS011;61363;50.882;5.988;2024-01-10T04:00:18;5.60;;;2.70;;
73152;SDS011;61363;50.882;5.988;2024-01-10T04:02:43;6.00;;;2.77;;
73152;SDS011;61363;50.882;5.988;2024-01-10T04:05:09;5.60;;;2.58;;
73152;SDS011;61363;50.882;5.988;2024-01-10T04:07:36;5.07;;;2.30;;
73152;SDS011;61363;50.882;5.988;2024-01-10T04:10:02;5.72;;;2.50;;
73152;SDS011;61363;50.882;5.988;2024-01-10T04:12:28;6.77;;;3.00;;
73152;SDS011;61363;50.882;5.988;2024-01-10T04:14:53;6.38;;;2.70;;
73152;SDS011;61363;50.882;5.988;2024-01-10T04:17:19;5.93;;;2.70;;
73152;SDS011;61363;50.882;5.988;2024-01-10T04:19:44;5.80;;;2.47;;
73152;SDS011;61363;50.882;5.988;2024-01-10T04:22:09;5.73;;;2.90;;
73152;SDS011;61363;50.882;5.988;2024-01-10T04:24:35;6.50;;;2.90;;
73152;SDS011;61363;50.882;5.988;2024-01-10T04:27:00;5.97;;;2.60;;
73152;SDS011;61363;50.882;5.988;2024-01-10T04:29:25;6.70;;;2.77;;
73152;SDS011;61363;50.882;5.988;2024-01-10T04:31:51;8.27;;;3.03;;
73152;SDS011;61363;50.882;5.988;2024-01-10T04:34:16;6.50;;;2.97;;
73152;SDS011;61363;50.882;5.988;2024-01-10T04:36:43;6.57;;;2.70;;
73152;SDS011;61363;50.882;5.988;2024-01-10T04:39:08;6.77;;;2.80;;
73152;SDS011;61363;50.882;5.988;2024-01-10T04:41:33;6.63;;;3.07;;
73152;SDS011;61363;50.882;5.988;2024-01-10T04:43:59;6.37;;;2.93;;
73152;SDS011;61363;50.882;5.988;2024-01-10T04:46:24;6.63;;;2.80;;
73152;SDS011;61363;50.882;5.988;2024-01-10T04:48:49;5.57;;;2.50;;
73152;SDS011;61363;50.882;5.988;2024-01-10T04:51:15;5.60;;;3.00;;
73152;SDS011;61363;50.882;5.988;2024-01-10T04:53:40;6.10;;;2.57;;
73152;SDS011;61363;50.882;5.988;2024-01-10T04:56:06;6.20;;;2.80;;
73152;SDS011;61363;50.882;5.988;2024-01-10T04:58:31;6.17;;;3.10;;
73152;SDS011;61363;50.882;5.988;2024-01-10T05:00:57;5.07;;;2.80;;
73152;SDS011;61363;50.882;5.988;2024-01-10T05:03:23;5.73;;;2.70;;
73152;SDS011;61363;50.882;5.988;2024-01-10T05:05:48;6.87;;;2.83;;
73152;SDS011;61363;50.882;5.988;2024-01-10T05:08:14;6.67;;;2.97;;
73152;SDS011;61363;50.882;5.988;2024-01-10T05:10:39;5.53;;;2.63;;
73152;SDS011;61363;50.882;5.988;2024-01-10T05:13:05;5.77;;;2.63;;
73152;SDS011;61363;50.882;5.988;2024-01-10T05:15:30;6.20;;;3.07;;
73152;SDS011;61363;50.882;5.988;2024-01-10T05:17:55;5.20;;;2.63;;
73152;SDS011;61363;50.882;5.988;2024-01-10T05:20:21;6.83;;;2.70;;
73152;SDS011;61363;50.882;5.988;2024-01-10T05:22:46;6.17;;;2.77;;
73152;SDS011;61363;50.882;5.988;2024-01-10T05:25:11;5.97;;;2.73;;
73152;SDS011;61363;50.882;5.988;2024-01-10T05:27:37;5.87;;;2.67;;
73152;SDS011;61363;50.882;5.988;2024-01-10T05:30:03;5.28;;;2.60;;
73152;SDS011;61363;50.882;5.988;2024-01-10T05:32:28;5.97;;;2.80;;
73152;SDS011;61363;50.882;5.988;2024-01-10T05:34:54;5.53;;;2.47;;
73152;SDS011;61363;50.882;5.988;2024-01-10T05:37:19;7.07;;;3.00;;
73152;SDS011;61363;50.882;5.988;2024-01-10T05:39:45;6.83;;;2.80;;
73152;SDS011;61363;50.882;5.988;2024-01-10T05:42:10;6.50;;;2.97;;
73152;SDS011;61363;50.882;5.988;2024-01-10T05:44:36;5.65;;;2.45;;
73152;SDS011;61363;50.882;5.988;2024-01-10T05:47:01;6.13;;;2.70;;
73152;SDS011;61363;50.882;5.988;2024-01-10T05:49:27;6.13;;;2.67;;
73152;SDS011;61363;50.882;5.988;2024-01-10T05:51:53;6.13;;;2.80;;
73152;SDS011;61363;50.882;5.988;2024-01-10T05:54:20;5.72;;;2.75;;
73152;SDS011;61363;50.882;5.988;2024-01-10T05:56:45;5.93;;;2.77;;
73152;SDS011;61363;50.882;5.988;2024-01-10T05:59:10;6.60;;;2.80;;
73152;SDS011;61363;50.882;5.988;2024-01-10T06:01:36;6.13;;;2.92;;
73152;SDS011;61363;50.882;5.988;2024-01-10T06:04:03;6.50;;;2.97;;
73152;SDS011;61363;50.882;5.988;2024-01-10T06:06:29;5.72;;;2.63;;
73152;SDS011;61363;50.882;5.988;2024-01-10T06:08:54;6.23;;;2.90;;
73152;SDS011;61363;50.882;5.988;2024-01-10T06:11:20;5.35;;;2.60;;
73152;SDS011;61363;50.882;5.988;2024-01-10T06:13:45;5.90;;;2.70;;
73152;SDS011;61363;50.882;5.988;2024-01-10T06:16:10;7.40;;;2.90;;
73152;SDS011;61363;50.882;5.988;2024-01-10T06:18:36;5.90;;;2.77;;
73152;SDS011;61363;50.882;5.988;2024-01-10T06:21:01;6.73;;;3.07;;
73152;SDS011;61363;50.882;5.988;2024-01-10T06:23:27;6.30;;;2.67;;
73152;SDS011;61363;50.882;5.988;2024-01-10T06:25:52;9.20;;;2.90;;
73152;SDS011;61363;50.882;5.988;2024-01-10T06:28:19;7.80;;;3.05;;
73152;SDS011;61363;50.882;5.988;2024-01-10T06:30:45;6.70;;;2.90;;
73152;SDS011;61363;50.882;5.988;2024-01-10T06:33:10;6.97;;;2.87;;
73152;SDS011;61363;50.882;5.988;2024-01-10T06:35:35;10.07;;;3.57;;
73152;SDS011;61363;50.882;5.988;2024-01-10T06:38:01;8.40;;;2.60;;
73152;SDS011;61363;50.882;5.988;2024-01-10T06:40:28;7.07;;;2.92;;
73152;SDS011;61363;50.882;5.988;2024-01-10T06:42:54;6.18;;;2.83;;
73152;SDS011;61363;50.882;5.988;2024-01-10T06:45:20;5.73;;;2.90;;
73152;SDS011;61363;50.882;5.988;2024-01-10T06:47:45;9.77;;;2.90;;
73152;SDS011;61363;50.882;5.988;2024-01-10T06:50:10;9.77;;;2.60;;
73152;SDS011;61363;50.882;5.988;2024-01-10T06:52:36;9.43;;;3.17;;
73152;SDS011;61363;50.882;5.988;2024-01-10T06:55:02;10.80;;;3.17;;
73152;SDS011;61363;50.882;5.988;2024-01-10T06:57:29;10.55;;;3.13;;
73152;SDS011;61363;50.882;5.988;2024-01-10T06:59:54;10.27;;;3.10;;
73152;SDS011;61363;50.882;5.988;2024-01-10T07:02:20;6.57;;;2.97;;
73152;SDS011;61363;50.882;5.988;2024-01-10T07:04:45;15.83;;;3.20;;
73152;SDS011;61363;50.882;5.988;2024-01-10T07:07:13;7.22;;;2.70;;
73152;SDS011;61363;50.882;5.988;2024-01-10T07:09:38;8.90;;;3.27;;
73152;SDS011;61363;50.882;5.988;2024-01-10T07:12:06;7.40;;;2.88;;
73152;SDS011;61363;50.882;5.988;2024-01-10T07:14:32;8.27;;;3.20;;
73152;SDS011;61363;50.882;5.988;2024-01-10T07:16:57;10.13;;;3.60;;
73152;SDS011;61363;50.882;5.988;2024-01-10T07:19:22;7.33;;;3.20;;
73152;SDS011;61363;50.882;5.988;2024-01-10T07:21:49;10.00;;;2.90;;
73152;SDS011;61363;50.882;5.988;2024-01-10T07:24:15;10.40;;;3.45;;
73152;SDS011;61363;50.882;5.988;2024-01-10T07:26:40;11.10;;;3.47;;
73152;SDS011;61363;50.882;5.988;2024-01-10T07:29:06;11.43;;;3.43;;
73152;SDS011;61363;50.882;5.988;2024-01-10T07:31:33;12.25;;;3.05;;
73152;SDS011;61363;50.882;5.988;2024-01-10T07:34:01;10.98;;;3.00;;
73152;SDS011;61363;50.882;5.988;2024-01-10T07:36:29;7.65;;;3.08;;
73152;SDS011;61363;50.882;5.988;2024-01-10T07:38:58;9.10;;;3.00;;
73152;SDS011;61363;50.882;5.988;2024-01-10T07:41:24;8.07;;;3.03;;
73152;SDS011;61363;50.882;5.988;2024-01-10T07:43:50;9.57;;;3.30;;
73152;SDS011;61363;50.882;5.988;2024-01-10T07:46:15;10.55;;;3.00;;
73152;SDS011;61363;50.882;5.988;2024-01-10T07:48:40;8.40;;;3.07;;
73152;SDS011;61363;50.882;5.988;2024-01-10T07:51:06;8.33;;;3.17;;
73152;SDS011;61363;50.882;5.988;2024-01-10T07:53:31;13.02;;;3.90;;
73152;SDS011;61363;50.882;5.988;2024-01-10T07:55:57;10.03;;;3.10;;
73152;SDS011;61363;50.882;5.988;2024-01-10T07:58:22;9.47;;;3.50;;
73152;SDS011;61363;50.882;5.988;2024-01-10T08:00:48;10.17;;;3.03;;
73152;SDS011;61363;50.882;5.988;2024-01-10T08:03:13;8.20;;;3.00;;
73152;SDS011;61363;50.882;5.988;2024-01-10T08:05:39;7.63;;;3.27;;
73152;SDS011;61363;50.882;5.988;2024-01-10T08:08:04;7.87;;;3.17;;
73152;SDS011;61363;50.882;5.988;2024-01-10T08:10:30;7.00;;;3.00;;
73152;SDS011;61363;50.882;5.988;2024-01-10T08:12:55;9.20;;;3.13;;
73152;SDS011;61363;50.882;5.988;2024-01-10T08:15:21;8.45;;;3.25;;
73152;SDS011;61363;50.882;5.988;2024-01-10T08:17:47;8.90;;;3.20;;
73152;SDS011;61363;50.882;5.988;2024-01-10T08:20:13;8.30;;;3.28;;
73152;SDS011;61363;50.882;5.988;2024-01-10T08:22:40;8.40;;;3.33;;
73152;SDS011;61363;50.882;5.988;2024-01-10T08:25:06;6.93;;;3.00;;
73152;SDS011;61363;50.882;5.988;2024-01-10T08:27:32;11.65;;;3.50;;
73152;SDS011;61363;50.882;5.988;2024-01-10T08:29:58;11.82;;;3.20;;
73152;SDS011;61363;50.882;5.988;2024-01-10T08:32:24;10.80;;;3.23;;
73152;SDS011;61363;50.882;5.988;2024-01-10T08:34:49;7.03;;;3.20;;
73152;SDS011;61363;50.882;5.988;2024-01-10T08:37:14;7.63;;;3.17;;
73152;SDS011;61363;50.882;5.988;2024-01-10T08:39:42;9.30;;;3.03;;
73152;SDS011;61363;50.882;5.988;2024-01-10T08:42:08;8.40;;;3.50;;
73152;SDS011;61363;50.882;5.988;2024-01-10T08:44:34;7.50;;;3.08;;
73152;SDS011;61363;50.882;5.988;2024-01-10T08:47:00;7.37;;;3.20;;
73152;SDS011;61363;50.882;5.988;2024-01-10T08:49:25;11.10;;;3.77;;
73152;SDS011;61363;50.882;5.988;2024-01-10T08:51:51;8.35;;;3.40;;
73152;SDS011;61363;50.882;5.988;2024-01-10T08:54:18;8.25;;;3.30;;
73152;SDS011;61363;50.882;5.988;2024-01-10T08:56:45;8.85;;;3.55;;
73152;SDS011;61363;50.882;5.988;2024-01-10T08:59:11;9.93;;;3.75;;
73152;SDS011;61363;50.882;5.988;2024-01-10T09:01:39;7.95;;;3.50;;
73152;SDS011;61363;50.882;5.988;2024-01-10T09:04:05;10.00;;;3.67;;
73152;SDS011;61363;50.882;5.988;2024-01-10T09:06:33;7.72;;;3.55;;
73152;SDS011;61363;50.882;5.988;2024-01-10T09:09:00;9.10;;;3.63;;
73152;SDS011;61363;50.882;5.988;2024-01-10T09:11:26;8.73;;;3.50;;
73152;SDS011;61363;50.882;5.988;2024-01-10T09:13:51;13.77;;;3.40;;
73152;SDS011;61363;50.882;5.988;2024-01-10T09:16:17;7.60;;;3.50;;
73152;SDS011;61363;50.882;5.988;2024-01-10T09:18:43;10.60;;;3.38;;
73152;SDS011;61363;50.882;5.988;2024-01-10T09:21:10;9.30;;;3.60;;
73152;SDS011;61363;50.882;5.988;2024-01-10T09:23:36;8.83;;;3.17;;
73152;SDS011;61363;50.882;5.988;2024-01-10T09:26:02;11.88;;;3.25;;
73152;SDS011;61363;50.882;5.988;2024-01-10T09:28:27;7.93;;;3.65;;
73152;SDS011;61363;50.882;5.988;2024-01-10T09:30:53;9.37;;;3.43;;
73152;SDS011;61363;50.882;5.988;2024-01-10T09:33:19;8.48;;;3.67;;
73152;SDS011;61363;50.882;5.988;2024-01-10T09:35:44;8.73;;;3.40;;
73152;SDS011;61363;50.882;5.988;2024-01-10T09:38:10;8.23;;;3.40;;
73152;SDS011;61363;50.882;5.988;2024-01-10T09:40:35;7.95;;;3.28;;
73152;SDS011;61363;50.882;5.988;2024-01-10T09:43:01;7.80;;;3.13;;
73152;SDS011;61363;50.882;5.988;2024-01-10T09:45:26;7.43;;;2.93;;
73152;SDS011;61363;50.882;5.988;2024-01-10T09:47:54;7.72;;;2.83;;
73152;SDS011;61363;50.882;5.988;2024-01-10T09:50:21;9.02;;;3.10;;
73152;SDS011;61363;50.882;5.988;2024-01-10T09:55:21;8.15;;;3.45;;
73152;SDS011;61363;50.882;5.988;2024-01-10T09:57:48;8.45;;;3.50;;
73152;SDS011;61363;50.882;5.988;2024-01-10T10:00:14;7.73;;;3.17;;
73152;SDS011;61363;50.882;5.988;2024-01-10T10:02:40;7.53;;;3.53;;
73152;SDS011;61363;50.882;5.988;2024-01-10T10:07:45;7.90;;;3.70;;
73152;SDS011;61363;50.882;5.988;2024-01-10T10:10:18;8.00;;;3.57;;
73152;SDS011;61363;50.882;5.988;2024-01-10T10:12:44;8.35;;;3.30;;
73152;SDS011;61363;50.882;5.988;2024-01-10T10:15:11;7.10;;;3.08;;
73152;SDS011;61363;50.882;5.988;2024-01-10T10:17:38;7.78;;;3.55;;
73152;SDS011;61363;50.882;5.988;2024-01-10T10:20:11;7.63;;;3.20;;
73152;SDS011;61363;50.882;5.988;2024-01-10T10:22:38;6.63;;;3.10;;
73152;SDS011;61363;50.882;5.988;2024-01-10T10:25:04;8.50;;;3.60;;
73152;SDS011;61363;50.882;5.988;2024-01-10T10:27:30;7.33;;;3.13;;
73152;SDS011;61363;50.882;5.988;2024-01-10T10:29:55;8.32;;;3.60;;
73152;SDS011;61363;50.882;5.988;2024-01-10T10:32:21;7.63;;;3.07;;
73152;SDS011;61363;50.882;5.988;2024-01-10T10:34:46;7.33;;;3.27;;
73152;SDS011;61363;50.882;5.988;2024-01-10T10:37:11;7.17;;;3.20;;
73152;SDS011;61363;50.882;5.988;2024-01-10T10:39:37;7.60;;;3.30;;
73152;SDS011;61363;50.882;5.988;2024-01-10T10:42:03;8.27;;;3.25;;
73152;SDS011;61363;50.882;5.988;2024-01-10T10:44:29;7.18;;;3.28;;
73152;SDS011;61363;50.882;5.988;2024-01-10T10:46:56;7.05;;;3.30;;
73152;SDS011;61363;50.882;5.988;2024-01-10T10:49:28;7.47;;;3.35;;
73152;SDS011;61363;50.882;5.988;2024-01-10T10:51:57;8.53;;;3.17;;
73152;SDS011;61363;50.882;5.988;2024-01-10T10:54:28;6.90;;;3.15;;
73152;SDS011;61363;50.882;5.988;2024-01-10T10:56:55;7.70;;;3.53;;
73152;SDS011;61363;50.882;5.988;2024-01-10T10:59:24;7.68;;;3.13;;
73152;SDS011;61363;50.882;5.988;2024-01-10T11:01:51;8.63;;;3.90;;
73152;SDS011;61363;50.882;5.988;2024-01-10T11:04:17;7.80;;;3.67;;
73152;SDS011;61363;50.882;5.988;2024-01-10T11:06:42;6.88;;;3.20;;
73152;SDS011;61363;50.882;5.988;2024-01-10T11:09:08;7.27;;;3.53;;
73152;SDS011;61363;50.882;5.988;2024-01-10T11:22:46;7.18;;;3.58;;
73152;SDS011;61363;50.882;5.988;2024-01-10T11:25:14;7.75;;;3.63;;
73152;SDS011;61363;50.882;5.988;2024-01-10T11:27:40;7.50;;;3.60;;
73152;SDS011;61363;50.882;5.988;2024-01-10T11:30:08;7.78;;;3.60;;
73152;SDS011;61363;50.882;5.988;2024-01-10T11:32:34;8.05;;;3.50;;
73152;SDS011;61363;50.882;5.988;2024-01-10T11:35:00;9.00;;;3.97;;
73152;SDS011;61363;50.882;5.988;2024-01-10T11:37:44;8.87;;;3.50;;
73152;SDS011;61363;50.882;5.988;2024-01-10T11:40:14;7.15;;;3.42;;
73152;SDS011;61363;50.882;5.988;2024-01-10T11:42:43;8.05;;;3.40;;
73152;SDS011;61363;50.882;5.988;2024-01-10T11:47:56;9.02;;;3.50;;
73152;SDS011;61363;50.882;5.988;2024-01-10T11:50:22;8.77;;;3.65;;
73152;SDS011;61363;50.882;5.988;2024-01-10T11:52:52;9.70;;;3.70;;
73152;SDS011;61363;50.882;5.988;2024-01-10T11:58:11;8.68;;;3.63;;
73152;SDS011;61363;50.882;5.988;2024-01-10T12:00:37;10.27;;;3.80;;
73152;SDS011;61363;50.882;5.988;2024-01-10T12:03:03;8.57;;;4.00;;
73152;SDS011;61363;50.882;5.988;2024-01-10T12:05:29;14.48;;;4.07;;
73152;SDS011;61363;50.882;5.988;2024-01-10T12:07:55;9.05;;;3.88;;
73152;SDS011;61363;50.882;5.988;2024-01-10T12:10:20;9.67;;;3.80;;
73152;SDS011;61363;50.882;5.988;2024-01-10T12:12:46;8.63;;;3.63;;
73152;SDS011;61363;50.882;5.988;2024-01-10T12:15:11;8.33;;;3.63;;
73152;SDS011;61363;50.882;5.988;2024-01-10T12:17:37;8.30;;;3.47;;
73152;SDS011;61363;50.882;5.988;2024-01-10T12:20:02;8.67;;;3.80;;
73152;SDS011;61363;50.882;5.988;2024-01-10T12:22:28;7.60;;;3.70;;
73152;SDS011;61363;50.882;5.988;2024-01-10T12:24:53;7.72;;;3.53;;
73152;SDS011;61363;50.882;5.988;2024-01-10T12:27:19;10.03;;;3.97;;
73152;SDS011;61363;50.882;5.988;2024-01-10T12:29:47;8.38;;;3.35;;
73152;SDS011;61363;50.882;5.988;2024-01-10T12:32:22;7.67;;;3.47;;
73152;SDS011;61363;50.882;5.988;2024-01-10T12:34:47;9.43;;;3.65;;
73152;SDS011;61363;50.882;5.988;2024-01-10T12:37:13;9.50;;;4.10;;
73152;SDS011;61363;50.882;5.988;2024-01-10T12:39:38;10.07;;;4.18;;
73152;SDS011;61363;50.882;5.988;2024-01-10T12:42:04;11.80;;;4.35;;
73152;SDS011;61363;50.882;5.988;2024-01-10T12:44:32;12.37;;;5.30;;
73152;SDS011;61363;50.882;5.988;2024-01-10T12:46:58;14.93;;;5.88;;
73152;SDS011;61363;50.882;5.988;2024-01-10T12:49:25;16.88;;;5.82;;
73152;SDS011;61363;50.882;5.988;2024-01-10T12:51:50;17.90;;;6.40;;
73152;SDS011;61363;50.882;5.988;2024-01-10T12:54:15;18.03;;;7.20;;
73152;SDS011;61363;50.882;5.988;2024-01-10T12:56:42;19.55;;;7.35;;
73152;SDS011;61363;50.882;5.988;2024-01-10T12:59:07;17.50;;;7.47;;
73152;SDS011;61363;50.882;5.988;2024-01-10T13:01:34;21.65;;;7.97;;
73152;SDS011;61363;50.882;5.988;2024-01-10T13:04:00;22.83;;;8.80;;
73152;SDS011;61363;50.882;5.988;2024-01-10T13:06:25;26.70;;;9.63;;
73152;SDS011;61363;50.882;5.988;2024-01-10T13:08:50;22.85;;;8.25;;
73152;SDS011;61363;50.882;5.988;2024-01-10T13:11:16;24.73;;;8.70;;
73152;SDS011;61363;50.882;5.988;2024-01-10T13:13:41;23.37;;;8.37;;
73152;SDS011;61363;50.882;5.988;2024-01-10T13:16:08;22.23;;;8.50;;
73152;SDS011;61363;50.882;5.988;2024-01-10T13:18:35;22.23;;;9.05;;
73152;SDS011;61363;50.882;5.988;2024-01-10T13:21:02;24.77;;;8.30;;
73152;SDS011;61363;50.882;5.988;2024-01-10T13:23:27;19.50;;;8.23;;
73152;SDS011;61363;50.882;5.988;2024-01-10T13:25:52;22.23;;;8.00;;
73152;SDS011;61363;50.882;5.988;2024-01-10T13:28:18;20.13;;;8.00;;
73152;SDS011;61363;50.882;5.988;2024-01-10T13:30:44;21.80;;;8.40;;
73152;SDS011;61363;50.882;5.988;2024-01-10T13:33:09;19.40;;;7.20;;
73152;SDS011;61363;50.882;5.988;2024-01-10T13:35:35;19.80;;;8.27;;
73152;SDS011;61363;50.882;5.988;2024-01-10T13:38:01;21.52;;;7.97;;
73152;SDS011;61363;50.882;5.988;2024-01-10T13:40:26;15.97;;;7.50;;
73152;SDS011;61363;50.882;5.988;2024-01-10T13:42:52;20.00;;;7.13;;
73152;SDS011;61363;50.882;5.988;2024-01-10T13:45:18;16.83;;;7.00;;
73152;SDS011;61363;50.882;5.988;2024-01-10T13:47:44;16.95;;;7.25;;
73152;SDS011;61363;50.882;5.988;2024-01-10T13:50:09;20.37;;;7.23;;
73152;SDS011;61363;50.882;5.988;2024-01-10T13:52:35;18.75;;;7.13;;
73152;SDS011;61363;50.882;5.988;2024-01-10T13:55:01;17.97;;;7.23;;
73152;SDS011;61363;50.882;5.988;2024-01-10T13:57:29;16.30;;;6.75;;
73152;SDS011;61363;50.882;5.988;2024-01-10T13:59:55;18.90;;;6.65;;
73152;SDS011;61363;50.882;5.988;2024-01-10T14:02:23;16.83;;;6.60;;
73152;SDS011;61363;50.882;5.988;2024-01-10T14:04:48;17.10;;;6.73;;
73152;SDS011;61363;50.882;5.988;2024-01-10T14:07:14;17.10;;;6.10;;
73152;SDS011;61363;50.882;5.988;2024-01-10T14:09:39;17.47;;;6.53;;
73152;SDS011;61363;50.882;5.988;2024-01-10T14:12:05;14.67;;;6.33;;
73152;SDS011;61363;50.882;5.988;2024-01-10T14:14:31;18.73;;;6.63;;
73152;SDS011;61363;50.882;5.988;2024-01-10T14:16:57;16.63;;;6.35;;
73152;SDS011;61363;50.882;5.988;2024-01-10T14:19:22;20.97;;;6.60;;
73152;SDS011;61363;50.882;5.988;2024-01-10T14:21:48;15.97;;;6.47;;
73152;SDS011;61363;50.882;5.988;2024-01-10T14:24:13;15.20;;;6.50;;
73152;SDS011;61363;50.882;5.988;2024-01-10T14:26:39;16.13;;;5.83;;
73152;SDS011;61363;50.882;5.988;2024-01-10T14:29:04;14.50;;;5.90;;
73152;SDS011;61363;50.882;5.988;2024-01-10T14:31:29;16.83;;;6.00;;
73152;SDS011;61363;50.882;5.988;2024-01-10T14:33:55;16.20;;;6.47;;
73152;SDS011;61363;50.882;5.988;2024-01-10T14:36:21;13.63;;;5.57;;
73152;SDS011;61363;50.882;5.988;2024-01-10T14:38:47;20.90;;;6.20;;
73152;SDS011;61363;50.882;5.988;2024-01-10T14:41:12;15.90;;;6.18;;
73152;SDS011;61363;50.882;5.988;2024-01-10T14:43:37;15.27;;;5.83;;
73152;SDS011;61363;50.882;5.988;2024-01-10T14:46:03;15.87;;;5.83;;
73152;SDS011;61363;50.882;5.988;2024-01-10T14:48:30;14.10;;;6.00;;
73152;SDS011;61363;50.882;5.988;2024-01-10T14:50:56;13.75;;;5.90;;
73152;SDS011;61363;50.882;5.988;2024-01-10T14:53:21;16.07;;;6.17;;
73152;SDS011;61363;50.882;5.988;2024-01-10T14:55:47;14.73;;;5.87;;
73152;SDS011;61363;50.882;5.988;2024-01-10T14:58:12;13.33;;;5.63;;
73152;SDS011;61363;50.882;5.988;2024-01-10T15:00:39;14.73;;;6.13;;